ASK317 EPWA-LIMC
Flight info
| Callsign | ASK317 |
|---|---|
| Flight time | 1h 46m |
| Altitude | 36000 |
| Route | EVINA N744 TUSIN DCT MIKOV DCT OBEDI DCT DETSA DCT BAKOR DCT NAXAV DCT RENTA DCT ATPED M984 EVRIP |
| Aircraft | B738/M-SDE2E3FGHIRWXY/LB1 |
Departure
| Time | 2026-05-04 11:19 |
|---|---|
| Airport | Warsaw Chopin Airport (EPWA) |
Arrival
| Time | 2026-05-04 13:06 |
|---|---|
| Airport | Milan Malpensa International Airport (LIMC) |
| Time | Latitude | Longitude | Altitude | Speed | Heading |
|---|---|---|---|---|---|
| 2026-05-04 10:58 | 52.16957 | 20.97189 | 338 ft | 0 kts | 68° |
| 2026-05-04 11:10 | 52.16940 | 20.97121 | 334 ft | 3 kts | 68° |
| 2026-05-04 11:12 | 52.16955 | 20.97017 | 338 ft | 0 kts | 152° |
| 2026-05-04 11:13 | 52.16943 | 20.97028 | 336 ft | 5 kts | 152° |
| 2026-05-04 11:13 | 52.16885 | 20.97077 | 334 ft | 14 kts | 152° |
| 2026-05-04 11:13 | 52.16786 | 20.97163 | 336 ft | 17 kts | 153° |
| 2026-05-04 11:14 | 52.16556 | 20.97422 | 336 ft | 12 kts | 112° |
| 2026-05-04 11:16 | 52.16388 | 20.98027 | 335 ft | 19 kts | 114° |
| 2026-05-04 11:17 | 52.16329 | 20.98241 | 334 ft | 18 kts | 115° |
| 2026-05-04 11:17 | 52.16269 | 20.98339 | 336 ft | 11 kts | 185° |
| 2026-05-04 11:19 | 52.16751 | 20.96076 | 346 ft | 169 kts | 294° |
| 2026-05-04 11:19 | 52.17303 | 20.94151 | 914 ft | 194 kts | 292° |
| 2026-05-04 11:19 | 52.17856 | 20.92158 | 2042 ft | 190 kts | 290° |
| 2026-05-04 11:19 | 52.18274 | 20.90215 | 3260 ft | 176 kts | 271° |
| 2026-05-04 11:20 | 52.18088 | 20.88310 | 4070 ft | 171 kts | 256° |
| 2026-05-04 11:20 | 52.17810 | 20.86359 | 4343 ft | 192 kts | 256° |
| 2026-05-04 11:20 | 52.17502 | 20.84160 | 4491 ft | 208 kts | 257° |
| 2026-05-04 11:20 | 52.17181 | 20.81779 | 4787 ft | 225 kts | 256° |
| 2026-05-04 11:22 | 52.11083 | 20.65102 | 8885 ft | 271 kts | 219° |
| 2026-05-04 11:22 | 52.09571 | 20.63227 | 9594 ft | 274 kts | 220° |
| 2026-05-04 11:23 | 52.08053 | 20.61336 | 10272 ft | 278 kts | 220° |
| 2026-05-04 11:23 | 52.06470 | 20.59350 | 10475 ft | 300 kts | 220° |
| 2026-05-04 11:24 | 51.95038 | 20.45257 | 13196 ft | 363 kts | 208° |
| 2026-05-04 11:25 | 51.92605 | 20.44034 | 13833 ft | 372 kts | 192° |
| 2026-05-04 11:25 | 51.90020 | 20.43575 | 14472 ft | 375 kts | 188° |
| 2026-05-04 11:25 | 51.87408 | 20.43221 | 15086 ft | 379 kts | 188° |
| 2026-05-04 11:26 | 51.82120 | 20.42515 | 16351 ft | 384 kts | 188° |
| 2026-05-04 11:27 | 51.63017 | 20.39647 | 20147 ft | 407 kts | 188° |
| 2026-05-04 11:28 | 51.60188 | 20.39219 | 20634 ft | 410 kts | 188° |
| 2026-05-04 11:28 | 51.57335 | 20.38787 | 21092 ft | 414 kts | 188° |
| 2026-05-04 11:28 | 51.54455 | 20.38352 | 21540 ft | 418 kts | 188° |
| 2026-05-04 11:28 | 51.51551 | 20.37915 | 21991 ft | 421 kts | 188° |
| 2026-05-04 11:29 | 51.48624 | 20.37474 | 22424 ft | 424 kts | 188° |
| 2026-05-04 11:29 | 51.45672 | 20.37030 | 22842 ft | 428 kts | 188° |
| 2026-05-04 11:29 | 51.42706 | 20.36585 | 23371 ft | 429 kts | 188° |
| 2026-05-04 11:29 | 51.39753 | 20.35937 | 23766 ft | 428 kts | 198° |
| 2026-05-04 11:31 | 51.22675 | 20.16574 | 26101 ft | 440 kts | 218° |
| 2026-05-04 11:33 | 51.05215 | 19.95741 | 28256 ft | 454 kts | 218° |
| 2026-05-04 11:33 | 51.02682 | 19.92740 | 28645 ft | 454 kts | 218° |
| 2026-05-04 11:33 | 51.00149 | 19.89741 | 28972 ft | 455 kts | 218° |
| 2026-05-04 11:34 | 50.97616 | 19.86748 | 29423 ft | 453 kts | 218° |
| 2026-05-04 11:34 | 50.95091 | 19.83770 | 29842 ft | 452 kts | 218° |
| 2026-05-04 11:34 | 50.92564 | 19.80793 | 30161 ft | 453 kts | 218° |
| 2026-05-04 11:34 | 50.90037 | 19.77818 | 30501 ft | 452 kts | 218° |
| 2026-05-04 11:35 | 50.87520 | 19.74859 | 30902 ft | 450 kts | 218° |
| 2026-05-04 11:35 | 50.85009 | 19.71911 | 31212 ft | 450 kts | 218° |
| 2026-05-04 11:35 | 50.82495 | 19.68963 | 31497 ft | 450 kts | 218° |
| 2026-05-04 11:35 | 50.79982 | 19.66020 | 31813 ft | 449 kts | 218° |
| 2026-05-04 11:36 | 50.77467 | 19.63078 | 32138 ft | 449 kts | 218° |
| 2026-05-04 11:36 | 50.74959 | 19.60148 | 32438 ft | 448 kts | 218° |
| 2026-05-04 11:36 | 50.72454 | 19.57227 | 32791 ft | 447 kts | 218° |
| 2026-05-04 11:36 | 50.70801 | 19.55301 | 33022 ft | 446 kts | 218° |
| 2026-05-04 11:37 | 50.67493 | 19.51453 | 33405 ft | 446 kts | 218° |
| 2026-05-04 11:37 | 50.64997 | 19.48553 | 33699 ft | 446 kts | 218° |
| 2026-05-04 11:37 | 50.62505 | 19.45662 | 34017 ft | 444 kts | 218° |
| 2026-05-04 11:37 | 50.60015 | 19.42778 | 34293 ft | 443 kts | 218° |
| 2026-05-04 11:38 | 50.57536 | 19.39910 | 34619 ft | 441 kts | 218° |
| 2026-05-04 11:38 | 50.55067 | 19.37058 | 34890 ft | 440 kts | 218° |
| 2026-05-04 11:38 | 50.53401 | 19.35135 | 35035 ft | 440 kts | 218° |
| 2026-05-04 11:38 | 50.50932 | 19.32288 | 35228 ft | 441 kts | 218° |
| 2026-05-04 11:39 | 50.48462 | 19.29444 | 35456 ft | 440 kts | 218° |
| 2026-05-04 11:39 | 50.45996 | 19.26609 | 35745 ft | 438 kts | 218° |
| 2026-05-04 11:40 | 50.31202 | 19.09678 | 36024 ft | 437 kts | 218° |
| 2026-05-04 11:41 | 50.28751 | 19.06885 | 36016 ft | 436 kts | 218° |
| 2026-05-04 11:41 | 50.23888 | 19.01356 | 36018 ft | 434 kts | 218° |
| 2026-05-04 11:42 | 50.19009 | 18.95822 | 36022 ft | 433 kts | 218° |
| 2026-05-04 11:42 | 50.14128 | 18.90300 | 36019 ft | 434 kts | 218° |
| 2026-05-04 11:43 | 50.09233 | 18.84776 | 36024 ft | 435 kts | 218° |
| 2026-05-04 11:43 | 50.04312 | 18.79237 | 36023 ft | 437 kts | 218° |
| 2026-05-04 11:44 | 49.99367 | 18.73686 | 36018 ft | 439 kts | 217° |
| 2026-05-04 11:44 | 49.94408 | 18.68133 | 36028 ft | 441 kts | 218° |
| 2026-05-04 11:45 | 49.89420 | 18.62559 | 36022 ft | 443 kts | 218° |
| 2026-05-04 11:45 | 49.84515 | 18.56791 | 36013 ft | 442 kts | 225° |
| 2026-05-04 11:46 | 49.80540 | 18.49605 | 36024 ft | 440 kts | 233° |
| 2026-05-04 11:46 | 49.76715 | 18.42210 | 36019 ft | 440 kts | 233° |
| 2026-05-04 11:47 | 49.72869 | 18.34858 | 36030 ft | 439 kts | 233° |
| 2026-05-04 11:47 | 49.69012 | 18.27554 | 36016 ft | 438 kts | 233° |
| 2026-05-04 11:48 | 49.65158 | 18.20296 | 36023 ft | 436 kts | 232° |
| 2026-05-04 11:48 | 49.61346 | 18.13137 | 36024 ft | 434 kts | 232° |
| 2026-05-04 11:49 | 49.57520 | 18.05970 | 36011 ft | 432 kts | 232° |
| 2026-05-04 11:49 | 49.53703 | 17.98838 | 36028 ft | 431 kts | 232° |
| 2026-05-04 11:50 | 49.49894 | 17.91739 | 36026 ft | 430 kts | 232° |
| 2026-05-04 11:50 | 49.46086 | 17.84662 | 36027 ft | 430 kts | 232° |
| 2026-05-04 11:51 | 49.42283 | 17.77612 | 36043 ft | 431 kts | 232° |
| 2026-05-04 11:51 | 49.38654 | 17.70906 | 36033 ft | 433 kts | 232° |
| 2026-05-04 11:52 | 49.34795 | 17.63788 | 36037 ft | 435 kts | 232° |
| 2026-05-04 11:52 | 49.30910 | 17.56642 | 36025 ft | 437 kts | 232° |
| 2026-05-04 11:53 | 49.27015 | 17.49501 | 36031 ft | 438 kts | 232° |
| 2026-05-04 11:53 | 49.23095 | 17.42330 | 36028 ft | 439 kts | 232° |
| 2026-05-04 11:55 | 49.07892 | 17.14711 | 36036 ft | 438 kts | 232° |
| 2026-05-04 11:56 | 49.03962 | 17.07614 | 36036 ft | 438 kts | 232° |
| 2026-05-04 11:56 | 49.00029 | 17.00534 | 36024 ft | 438 kts | 231° |
| 2026-05-04 11:57 | 48.96153 | 16.93576 | 36034 ft | 437 kts | 232° |
| 2026-05-04 11:57 | 48.92272 | 16.86626 | 36016 ft | 437 kts | 231° |
| 2026-05-04 11:58 | 48.88333 | 16.79590 | 36023 ft | 437 kts | 231° |
| 2026-05-04 11:58 | 48.84391 | 16.72566 | 36023 ft | 437 kts | 231° |
| 2026-05-04 11:59 | 48.80495 | 16.65640 | 36021 ft | 437 kts | 231° |
| 2026-05-04 11:59 | 48.76993 | 16.58852 | 36014 ft | 435 kts | 238° |
| 2026-05-04 12:00 | 48.73827 | 16.51230 | 36005 ft | 435 kts | 240° |
| 2026-05-04 12:00 | 48.70748 | 16.43686 | 36012 ft | 435 kts | 239° |
| 2026-05-04 12:01 | 48.67537 | 16.35938 | 36007 ft | 435 kts | 239° |
| 2026-05-04 12:02 | 48.56274 | 16.09259 | 36003 ft | 436 kts | 239° |
| 2026-05-04 12:03 | 48.52996 | 16.01551 | 35996 ft | 436 kts | 239° |
| 2026-05-04 12:03 | 48.49716 | 15.93860 | 35997 ft | 436 kts | 239° |
| 2026-05-04 12:04 | 48.46434 | 15.86186 | 35997 ft | 435 kts | 239° |
| 2026-05-04 12:04 | 48.43173 | 15.78580 | 35985 ft | 435 kts | 239° |
| 2026-05-04 12:05 | 48.39895 | 15.70960 | 35994 ft | 434 kts | 239° |
| 2026-05-04 12:05 | 48.36613 | 15.63348 | 36000 ft | 434 kts | 239° |
| 2026-05-04 12:06 | 48.33326 | 15.55749 | 35987 ft | 433 kts | 239° |
| 2026-05-04 12:06 | 48.30037 | 15.48166 | 35995 ft | 433 kts | 238° |
| 2026-05-04 12:07 | 48.27007 | 15.41200 | 35987 ft | 433 kts | 238° |
| 2026-05-04 12:07 | 48.23712 | 15.33644 | 35990 ft | 433 kts | 238° |
| 2026-05-04 12:08 | 48.20419 | 15.26110 | 35986 ft | 433 kts | 238° |
| 2026-05-04 12:08 | 48.17112 | 15.18570 | 35990 ft | 433 kts | 238° |
| 2026-05-04 12:09 | 48.13845 | 15.11138 | 35986 ft | 433 kts | 238° |
| 2026-05-04 12:09 | 48.10613 | 15.03810 | 35997 ft | 433 kts | 238° |
| 2026-05-04 12:10 | 48.07518 | 14.96808 | 35977 ft | 433 kts | 238° |
| 2026-05-04 12:10 | 48.04240 | 14.89413 | 35985 ft | 433 kts | 238° |
| 2026-05-04 12:11 | 48.00976 | 14.82068 | 35984 ft | 433 kts | 238° |
| 2026-05-04 12:11 | 47.97707 | 14.74734 | 35988 ft | 433 kts | 238° |
| 2026-05-04 12:12 | 47.94626 | 14.67837 | 35984 ft | 433 kts | 238° |
| 2026-05-04 12:12 | 47.91406 | 14.60650 | 35985 ft | 432 kts | 238° |
| 2026-05-04 12:14 | 47.78763 | 14.32607 | 35984 ft | 432 kts | 237° |
| 2026-05-04 12:15 | 47.75760 | 14.25990 | 35982 ft | 431 kts | 237° |
| 2026-05-04 12:15 | 47.72405 | 14.18614 | 35982 ft | 431 kts | 237° |
| 2026-05-04 12:16 | 47.69254 | 14.11704 | 35974 ft | 430 kts | 237° |
| 2026-05-04 12:16 | 47.65893 | 14.04353 | 35973 ft | 430 kts | 237° |
| 2026-05-04 12:17 | 47.62954 | 13.97944 | 35981 ft | 430 kts | 237° |
| 2026-05-04 12:17 | 47.59598 | 13.90640 | 35990 ft | 430 kts | 237° |
| 2026-05-04 12:18 | 47.56222 | 13.83313 | 35990 ft | 430 kts | 236° |
| 2026-05-04 12:18 | 47.52839 | 13.75990 | 35994 ft | 431 kts | 236° |
| 2026-05-04 12:19 | 47.49449 | 13.68671 | 35994 ft | 432 kts | 236° |
| 2026-05-04 12:19 | 47.46049 | 13.61352 | 35994 ft | 432 kts | 236° |
| 2026-05-04 12:20 | 47.42645 | 13.54042 | 35991 ft | 433 kts | 236° |
| 2026-05-04 12:20 | 47.39225 | 13.46715 | 36000 ft | 433 kts | 236° |
| 2026-05-04 12:21 | 47.35917 | 13.39645 | 35994 ft | 434 kts | 236° |
| 2026-05-04 12:21 | 47.33101 | 13.33644 | 36005 ft | 434 kts | 236° |
| 2026-05-04 12:22 | 47.30258 | 13.27747 | 36011 ft | 434 kts | 234° |
| 2026-05-04 12:22 | 47.26918 | 13.21008 | 36020 ft | 433 kts | 234° |
| 2026-05-04 12:23 | 47.24017 | 13.15175 | 36010 ft | 433 kts | 234° |
| 2026-05-04 12:23 | 47.21151 | 13.09393 | 36012 ft | 434 kts | 234° |
| 2026-05-04 12:24 | 47.18163 | 13.03366 | 36013 ft | 433 kts | 234° |
| 2026-05-04 12:24 | 47.14929 | 12.96863 | 36013 ft | 433 kts | 234° |
| 2026-05-04 12:25 | 47.12305 | 12.91593 | 36013 ft | 432 kts | 234° |
| 2026-05-04 12:25 | 47.08976 | 12.84922 | 36021 ft | 432 kts | 234° |
| 2026-05-04 12:26 | 47.05789 | 12.78549 | 36046 ft | 431 kts | 234° |
| 2026-05-04 12:26 | 47.02575 | 12.72140 | 36044 ft | 429 kts | 234° |
| 2026-05-04 12:27 | 47.00581 | 12.68170 | 36062 ft | 429 kts | 234° |
| 2026-05-04 12:27 | 46.98301 | 12.63627 | 36048 ft | 429 kts | 234° |
| 2026-05-04 12:28 | 46.95198 | 12.57457 | 36063 ft | 429 kts | 233° |
| 2026-05-04 12:28 | 46.91899 | 12.50941 | 36076 ft | 429 kts | 233° |
| 2026-05-04 12:29 | 46.89040 | 12.45300 | 36083 ft | 429 kts | 233° |
| 2026-05-04 12:29 | 46.86214 | 12.39740 | 36106 ft | 428 kts | 233° |
| 2026-05-04 12:30 | 46.83667 | 12.34717 | 36120 ft | 428 kts | 233° |
| 2026-05-04 12:30 | 46.80596 | 12.28651 | 36139 ft | 429 kts | 235° |
| 2026-05-04 12:31 | 46.77702 | 12.20984 | 36133 ft | 429 kts | 243° |
| 2026-05-04 12:31 | 46.75138 | 12.13435 | 36041 ft | 430 kts | 243° |
| 2026-05-04 12:32 | 46.71384 | 12.02604 | 36041 ft | 429 kts | 243° |
| 2026-05-04 12:33 | 46.68666 | 11.94867 | 36049 ft | 429 kts | 243° |
| 2026-05-04 12:33 | 46.65937 | 11.87134 | 36052 ft | 429 kts | 242° |
| 2026-05-04 12:34 | 46.63209 | 11.79416 | 36049 ft | 430 kts | 242° |
| 2026-05-04 12:34 | 46.60576 | 11.71990 | 36054 ft | 430 kts | 242° |
| 2026-05-04 12:35 | 46.57839 | 11.64274 | 36053 ft | 430 kts | 242° |
| 2026-05-04 12:35 | 46.55096 | 11.56548 | 36065 ft | 430 kts | 242° |
| 2026-05-04 12:36 | 46.52345 | 11.48822 | 36050 ft | 431 kts | 242° |
| 2026-05-04 12:36 | 46.49586 | 11.41096 | 36051 ft | 431 kts | 242° |
| 2026-05-04 12:37 | 46.46838 | 11.33423 | 36052 ft | 432 kts | 242° |
| 2026-05-04 12:37 | 46.44120 | 11.25653 | 36048 ft | 432 kts | 243° |
| 2026-05-04 12:38 | 46.41458 | 11.17842 | 36101 ft | 432 kts | 243° |
| 2026-05-04 12:38 | 46.40124 | 11.13943 | 36211 ft | 432 kts | 243° |
| 2026-05-04 12:38 | 46.38786 | 11.10047 | 36207 ft | 432 kts | 243° |
| 2026-05-04 12:39 | 46.36100 | 11.02261 | 36212 ft | 432 kts | 243° |
| 2026-05-04 12:39 | 46.33409 | 10.94490 | 36200 ft | 432 kts | 243° |
| 2026-05-04 12:39 | 46.32051 | 10.90577 | 35699 ft | 438 kts | 243° |
| 2026-05-04 12:40 | 46.30683 | 10.86643 | 35098 ft | 437 kts | 243° |
| 2026-05-04 12:40 | 46.29316 | 10.82714 | 34476 ft | 438 kts | 242° |
| 2026-05-04 12:40 | 46.27951 | 10.78797 | 33779 ft | 438 kts | 242° |
| 2026-05-04 12:40 | 46.26576 | 10.74857 | 33050 ft | 439 kts | 242° |
| 2026-05-04 12:41 | 46.25199 | 10.70913 | 32329 ft | 440 kts | 242° |
| 2026-05-04 12:41 | 46.23819 | 10.66966 | 31616 ft | 440 kts | 242° |
| 2026-05-04 12:41 | 46.22493 | 10.63179 | 30928 ft | 441 kts | 242° |
| 2026-05-04 12:41 | 46.21111 | 10.59236 | 30343 ft | 439 kts | 242° |
| 2026-05-04 12:42 | 46.19739 | 10.55326 | 29752 ft | 435 kts | 242° |
| 2026-05-04 12:42 | 46.18380 | 10.51458 | 29206 ft | 429 kts | 242° |
| 2026-05-04 12:42 | 46.17037 | 10.47641 | 28654 ft | 425 kts | 242° |
| 2026-05-04 12:42 | 46.15705 | 10.43865 | 28157 ft | 420 kts | 242° |
| 2026-05-04 12:43 | 46.14388 | 10.40137 | 27632 ft | 416 kts | 242° |
| 2026-05-04 12:43 | 46.13153 | 10.36646 | 27137 ft | 413 kts | 242° |
| 2026-05-04 12:43 | 46.11854 | 10.32974 | 26636 ft | 409 kts | 242° |
| 2026-05-04 12:43 | 46.10567 | 10.29337 | 26113 ft | 406 kts | 242° |
| 2026-05-04 12:44 | 46.09288 | 10.25729 | 25607 ft | 403 kts | 242° |
| 2026-05-04 12:44 | 46.08017 | 10.22149 | 25134 ft | 400 kts | 242° |
| 2026-05-04 12:44 | 46.06756 | 10.18598 | 24627 ft | 398 kts | 242° |
| 2026-05-04 12:44 | 46.05496 | 10.15059 | 24116 ft | 396 kts | 242° |
| 2026-05-04 12:45 | 46.04251 | 10.11567 | 23597 ft | 395 kts | 242° |
| 2026-05-04 12:45 | 46.03135 | 10.08334 | 23041 ft | 394 kts | 243° |
| 2026-05-04 12:45 | 46.01949 | 10.04798 | 22521 ft | 391 kts | 243° |
| 2026-05-04 12:45 | 46.00778 | 10.01277 | 22005 ft | 388 kts | 243° |
| 2026-05-04 12:46 | 45.99617 | 9.97792 | 21515 ft | 385 kts | 243° |
| 2026-05-04 12:46 | 45.98461 | 9.94335 | 21038 ft | 382 kts | 243° |
| 2026-05-04 12:46 | 45.97311 | 9.90910 | 20565 ft | 379 kts | 243° |
| 2026-05-04 12:46 | 45.96164 | 9.87503 | 20081 ft | 376 kts | 243° |
| 2026-05-04 12:47 | 45.95104 | 9.84362 | 19652 ft | 373 kts | 243° |
| 2026-05-04 12:47 | 45.94045 | 9.81231 | 19216 ft | 371 kts | 243° |
| 2026-05-04 12:47 | 45.92924 | 9.77919 | 18749 ft | 370 kts | 243° |
| 2026-05-04 12:47 | 45.91799 | 9.74601 | 18254 ft | 369 kts | 243° |
| 2026-05-04 12:48 | 45.90684 | 9.71313 | 17736 ft | 367 kts | 242° |
| 2026-05-04 12:48 | 45.89569 | 9.68032 | 17237 ft | 364 kts | 242° |
| 2026-05-04 12:48 | 45.88462 | 9.64776 | 16783 ft | 361 kts | 242° |
| 2026-05-04 12:48 | 45.87363 | 9.61548 | 16310 ft | 358 kts | 242° |
| 2026-05-04 12:49 | 45.86272 | 9.58350 | 15850 ft | 356 kts | 242° |
| 2026-05-04 12:49 | 45.85188 | 9.55177 | 15416 ft | 352 kts | 242° |
| 2026-05-04 12:49 | 45.84110 | 9.52035 | 14973 ft | 350 kts | 242° |
| 2026-05-04 12:49 | 45.83035 | 9.48912 | 14531 ft | 348 kts | 242° |
| 2026-05-04 12:50 | 45.81979 | 9.45846 | 14343 ft | 340 kts | 242° |
| 2026-05-04 12:50 | 45.81007 | 9.43026 | 14181 ft | 331 kts | 242° |
| 2026-05-04 12:50 | 45.80038 | 9.40216 | 14045 ft | 322 kts | 242° |
| 2026-05-04 12:50 | 45.79060 | 9.37382 | 13900 ft | 312 kts | 242° |
| 2026-05-04 12:51 | 45.78111 | 9.34636 | 13767 ft | 303 kts | 242° |
| 2026-05-04 12:51 | 45.77187 | 9.31968 | 13625 ft | 295 kts | 242° |
| 2026-05-04 12:51 | 45.76287 | 9.29369 | 13384 ft | 290 kts | 242° |
| 2026-05-04 12:51 | 45.75397 | 9.26799 | 13055 ft | 289 kts | 242° |
| 2026-05-04 12:52 | 45.74518 | 9.24263 | 12734 ft | 287 kts | 242° |
| 2026-05-04 12:52 | 45.73634 | 9.21711 | 12431 ft | 285 kts | 242° |
| 2026-05-04 12:52 | 45.72756 | 9.19178 | 12130 ft | 284 kts | 242° |
| 2026-05-04 12:52 | 45.71881 | 9.16656 | 11831 ft | 282 kts | 242° |
| 2026-05-04 12:53 | 45.71010 | 9.14149 | 11543 ft | 280 kts | 241° |
| 2026-05-04 12:53 | 45.70143 | 9.11659 | 11242 ft | 279 kts | 241° |
| 2026-05-04 12:53 | 45.69281 | 9.09182 | 10962 ft | 278 kts | 241° |
| 2026-05-04 12:53 | 45.68427 | 9.06731 | 10775 ft | 273 kts | 241° |
| 2026-05-04 12:54 | 45.67582 | 9.04309 | 10501 ft | 271 kts | 240° |
| 2026-05-04 12:54 | 45.66740 | 9.01898 | 10319 ft | 267 kts | 240° |
| 2026-05-04 12:54 | 45.65920 | 8.99552 | 10194 ft | 261 kts | 240° |
| 2026-05-04 12:54 | 45.65120 | 8.97266 | 10043 ft | 255 kts | 240° |
| 2026-05-04 12:55 | 45.64321 | 8.94994 | 9750 ft | 257 kts | 240° |
| 2026-05-04 12:55 | 45.63508 | 8.92692 | 9370 ft | 263 kts | 240° |
| 2026-05-04 12:55 | 45.62612 | 8.90390 | 8978 ft | 266 kts | 229° |
| 2026-05-04 12:55 | 45.61165 | 8.88813 | 8561 ft | 263 kts | 199° |
| 2026-05-04 12:56 | 45.59385 | 8.88366 | 8166 ft | 260 kts | 177° |
| 2026-05-04 12:56 | 45.57596 | 8.88717 | 7782 ft | 260 kts | 169° |
| 2026-05-04 12:56 | 45.55819 | 8.89237 | 7414 ft | 262 kts | 168° |
| 2026-05-04 12:56 | 45.54025 | 8.89762 | 7017 ft | 265 kts | 169° |
| 2026-05-04 12:57 | 45.52212 | 8.90272 | 6622 ft | 266 kts | 169° |
| 2026-05-04 12:57 | 45.50395 | 8.90775 | 6214 ft | 266 kts | 169° |
| 2026-05-04 12:57 | 45.48578 | 8.91274 | 5792 ft | 265 kts | 169° |
| 2026-05-04 12:57 | 45.46792 | 8.91762 | 5370 ft | 264 kts | 169° |
| 2026-05-04 12:58 | 45.44999 | 8.92251 | 4993 ft | 262 kts | 169° |
| 2026-05-04 12:58 | 45.43216 | 8.92736 | 4585 ft | 260 kts | 170° |
| 2026-05-04 12:58 | 45.41470 | 8.93210 | 4322 ft | 251 kts | 170° |
| 2026-05-04 12:58 | 45.39779 | 8.93669 | 4067 ft | 243 kts | 170° |
| 2026-05-04 12:59 | 45.38154 | 8.93768 | 3939 ft | 228 kts | 199° |
| 2026-05-04 12:59 | 45.36890 | 8.92532 | 3969 ft | 224 kts | 230° |
| 2026-05-04 12:59 | 45.36136 | 8.90595 | 3979 ft | 227 kts | 251° |
| 2026-05-04 12:59 | 45.35954 | 8.88388 | 3981 ft | 226 kts | 273° |
| 2026-05-04 13:00 | 45.36193 | 8.86172 | 3966 ft | 224 kts | 277° |
| 2026-05-04 13:00 | 45.36453 | 8.84019 | 3960 ft | 217 kts | 277° |
| 2026-05-04 13:00 | 45.36765 | 8.81939 | 3957 ft | 216 kts | 290° |
| 2026-05-04 13:00 | 45.37753 | 8.80356 | 3956 ft | 224 kts | 332° |
| 2026-05-04 13:01 | 45.39296 | 8.79849 | 3866 ft | 233 kts | 353° |
| 2026-05-04 13:01 | 45.40917 | 8.79499 | 3697 ft | 236 kts | 348° |
| 2026-05-04 13:01 | 45.42510 | 8.79051 | 3559 ft | 231 kts | 347° |
| 2026-05-04 13:01 | 45.44071 | 8.78607 | 3451 ft | 226 kts | 347° |
| 2026-05-04 13:02 | 45.45561 | 8.78191 | 3353 ft | 217 kts | 347° |
| 2026-05-04 13:02 | 45.47028 | 8.77786 | 3199 ft | 208 kts | 346° |
| 2026-05-04 13:02 | 45.48393 | 8.77406 | 3080 ft | 198 kts | 346° |
| 2026-05-04 13:02 | 45.49704 | 8.77044 | 3015 ft | 185 kts | 347° |
| 2026-05-04 13:03 | 45.50944 | 8.76700 | 2836 ft | 180 kts | 347° |
| 2026-05-04 13:03 | 45.52161 | 8.76361 | 2616 ft | 175 kts | 346° |
| 2026-05-04 13:03 | 45.53329 | 8.76037 | 2412 ft | 167 kts | 346° |
| 2026-05-04 13:03 | 45.54435 | 8.75731 | 2185 ft | 160 kts | 346° |
| 2026-05-04 13:04 | 45.55505 | 8.75434 | 1979 ft | 158 kts | 347° |
| 2026-05-04 13:04 | 45.56589 | 8.75132 | 1763 ft | 158 kts | 346° |
| 2026-05-04 13:04 | 45.57662 | 8.74835 | 1547 ft | 159 kts | 346° |
| 2026-05-04 13:04 | 45.58749 | 8.74533 | 1317 ft | 159 kts | 347° |
| 2026-05-04 13:05 | 45.59808 | 8.74241 | 1093 ft | 152 kts | 345° |
| 2026-05-04 13:05 | 45.60868 | 8.73942 | 927 ft | 155 kts | 346° |
| 2026-05-04 13:05 | 45.61924 | 8.73656 | 770 ft | 154 kts | 346° |
| 2026-05-04 13:05 | 45.62859 | 8.73395 | 754 ft | 110 kts | 349° |
| 2026-05-04 13:06 | 45.63394 | 8.73247 | 756 ft | 46 kts | 349° |
| 2026-05-04 13:06 | 45.63614 | 8.73165 | 758 ft | 26 kts | 334° |
| 2026-05-04 13:06 | 45.63747 | 8.73033 | 759 ft | 23 kts | 320° |
| 2026-05-04 13:06 | 45.63840 | 8.72869 | 758 ft | 17 kts | 303° |
| 2026-05-04 13:07 | 45.63852 | 8.72844 | 756 ft | 0 kts | 303° |
| 2026-05-04 13:09 | 45.63854 | 8.72840 | 758 ft | 2 kts | 303° |
| 2026-05-04 13:09 | 45.63884 | 8.72772 | 758 ft | 14 kts | 303° |
| 2026-05-04 13:09 | 45.63926 | 8.72636 | 758 ft | 15 kts | 256° |
| 2026-05-04 13:09 | 45.63837 | 8.72597 | 754 ft | 15 kts | 169° |
| 2026-05-04 13:10 | 45.63738 | 8.72625 | 757 ft | 14 kts | 170° |
| 2026-05-04 13:10 | 45.63643 | 8.72650 | 756 ft | 14 kts | 168° |
| 2026-05-04 13:10 | 45.63529 | 8.72683 | 757 ft | 20 kts | 169° |
| 2026-05-04 13:10 | 45.63396 | 8.72674 | 755 ft | 19 kts | 208° |
| 2026-05-04 13:11 | 45.63288 | 8.72572 | 756 ft | 18 kts | 214° |
| 2026-05-04 13:11 | 45.63184 | 8.72473 | 755 ft | 18 kts | 213° |
| 2026-05-04 13:11 | 45.63086 | 8.72374 | 756 ft | 17 kts | 222° |
| 2026-05-04 13:11 | 45.63032 | 8.72232 | 758 ft | 16 kts | 258° |
| 2026-05-04 13:12 | 45.63010 | 8.72075 | 756 ft | 16 kts | 259° |
| 2026-05-04 13:12 | 45.62991 | 8.71924 | 758 ft | 15 kts | 260° |
| 2026-05-04 13:12 | 45.62975 | 8.71785 | 758 ft | 10 kts | 272° |
| 2026-05-04 13:12 | 45.63027 | 8.71729 | 756 ft | 10 kts | 347° |
| 2026-05-04 13:13 | 45.63093 | 8.71710 | 758 ft | 10 kts | 348° |
| 2026-05-04 13:13 | 45.63136 | 8.71698 | 758 ft | 1 kts | 349° |
| 2026-05-04 13:13 | 45.63146 | 8.71693 | 754 ft | 2 kts | 329° |
| 2026-05-04 13:13 | 45.63145 | 8.71664 | 758 ft | 3 kts | 256° |
| 2026-05-04 13:14 | 45.63139 | 8.71634 | 758 ft | 3 kts | 256° |
| 2026-05-04 13:14 | 45.63133 | 8.71593 | 757 ft | 3 kts | 259° |
| 2026-05-04 13:14 | 45.63132 | 8.71579 | 756 ft | 1 kts | 259° |
| 2026-05-04 13:14 | 45.63131 | 8.71577 | 755 ft | 0 kts | 259° |